Time;durP1;ratioP1;P1;durP2;ratioP2;P2;SDS_P1;SDS_P2;PMS_P1;PMS_P2;Temp;Humidity;BMP_temperature;BMP_pressure;BME280_temperature;BME280_humidity;BME280_pressure;Samples;Min_cycle;Max_cycle;Signal;HPM_P1;HPM_P2
2024/03/15 00:00:17;;;;;;;13.57;8.40;;;;;;;;;;5058252;28;20621;-55
2024/03/15 00:02:45;;;;;;;13.65;8.70;;;;;;;;;;5051553;28;20104;-57
2024/03/15 00:05:11;;;;;;;13.63;8.70;;;;;;;;;;5053452;28;20491;-56
2024/03/15 00:07:39;;;;;;;13.60;8.70;;;;;;;;;;5053569;28;20429;-56
2024/03/15 00:10:05;;;;;;;13.63;8.73;;;;;;;;;;5052574;28;20033;-55
2024/03/15 00:12:33;;;;;;;13.52;8.40;;;;;;;;;;5034772;28;20024;-56
2024/03/15 00:14:59;;;;;;;13.68;8.82;;;;;;;;;;5053405;28;20025;-54
2024/03/15 00:17:25;;;;;;;13.70;8.98;;;;;;;;;;5053637;28;20087;-53
2024/03/15 00:19:51;;;;;;;13.68;8.93;;;;;;;;;;5053781;28;20052;-51
2024/03/15 00:22:17;;;;;;;14.48;10.40;;;;;;;;;;5035119;28;20060;-55
2024/03/15 00:24:43;;;;;;;13.70;9.05;;;;;;;;;;5053590;28;20028;-51
2024/03/15 00:27:12;;;;;;;13.70;8.90;;;;;;;;;;5053876;28;20406;-53
2024/03/15 00:29:38;;;;;;;;;;;;;;;;;;5054648;28;20052;-55
2024/03/15 00:32:04;;;;;;;13.60;8.70;;;;;;;;;;5053607;28;19932;-58
2024/03/15 00:34:30;;;;;;;13.70;8.90;;;;;;;;;;5053205;28;20031;-51
2024/03/15 00:36:56;;;;;;;13.68;8.90;;;;;;;;;;5053367;28;20037;-56
2024/03/15 00:39:23;;;;;;;13.70;8.93;;;;;;;;;;5053302;28;20133;-56
2024/03/15 00:41:49;;;;;;;13.73;9.00;;;;;;;;;;5052958;28;20025;-51
2024/03/15 00:44:15;;;;;;;13.70;9.00;;;;;;;;;;5034289;28;20398;-54
2024/03/15 00:46:41;;;;;;;13.63;8.90;;;;;;;;;;5108818;22;20055;-51
2024/03/15 00:49:07;;;;;;;13.63;8.85;;;;;;;;;;5091715;28;20123;-49
2024/03/15 00:51:35;;;;;;;13.80;9.20;;;;;;;;;;5090876;28;20060;-52
2024/03/15 00:54:01;;;;;;;13.68;9.00;;;;;;;;;;5091114;28;20039;-52
2024/03/15 00:56:27;;;;;;;13.60;8.68;;;;;;;;;;5091578;28;20024;-52
2024/03/15 00:58:54;;;;;;;13.68;9.05;;;;;;;;;;5091583;28;20397;-52
2024/03/15 01:01:20;;;;;;;13.60;8.70;;;;;;;;;;5091377;28;20556;-50
2024/03/15 01:03:46;;;;;;;13.55;8.60;;;;;;;;;;5090980;28;20031;-53
2024/03/15 01:06:15;;;;;;;13.55;8.48;;;;;;;;;;5091387;28;20032;-52
2024/03/15 01:08:41;;;;;;;13.57;8.70;;;;;;;;;;5091368;28;20099;-53
2024/03/15 01:11:07;;;;;;;16.35;9.95;;;;;;;;;;5091243;28;20020;-52
2024/03/15 01:13:33;;;;;;;13.60;8.60;;;;;;;;;;5089458;28;20027;-53
2024/03/15 01:16:00;;;;;;;13.90;8.85;;;;;;;;;;5091148;28;20657;-50
2024/03/15 01:18:26;;;;;;;13.38;8.32;;;;;;;;;;5091344;28;20016;-51
2024/03/15 01:20:52;;;;;;;13.57;8.60;;;;;;;;;;5091608;28;20056;-55
2024/03/15 01:23:18;;;;;;;13.60;8.60;;;;;;;;;;5091191;28;20047;-54
2024/03/15 01:25:45;;;;;;;13.60;8.60;;;;;;;;;;5091091;28;20032;-51
2024/03/15 01:28:11;;;;;;;13.45;8.30;;;;;;;;;;5091058;28;20105;-49
2024/03/15 01:30:37;;;;;;;13.35;8.10;;;;;;;;;;5090987;28;20020;-50
2024/03/15 01:33:05;;;;;;;13.38;8.07;;;;;;;;;;5090333;28;20016;-52
2024/03/15 01:35:34;;;;;;;13.35;8.00;;;;;;;;;;5090897;28;20028;-50
2024/03/15 01:38:00;;;;;;;13.38;8.02;;;;;;;;;;5072684;28;20110;-54
2024/03/15 01:40:27;;;;;;;13.45;8.10;;;;;;;;;;5090930;28;20035;-50
2024/03/15 01:42:53;;;;;;;13.38;8.00;;;;;;;;;;5090118;28;20443;-54
2024/03/15 01:45:19;;;;;;;13.25;7.95;;;;;;;;;;5090811;28;20115;-55
2024/03/15 01:47:45;;;;;;;13.27;7.85;;;;;;;;;;5073328;28;20369;-52
2024/03/15 01:50:12;;;;;;;15.43;9.07;;;;;;;;;;5072875;28;20108;-52
2024/03/15 01:52:41;;;;;;;13.32;7.90;;;;;;;;;;5090173;28;20020;-57
2024/03/15 01:55:08;;;;;;;13.20;7.80;;;;;;;;;;5090584;28;20031;-52
2024/03/15 01:57:33;;;;;;;13.43;8.10;;;;;;;;;;5090573;28;20470;-52
2024/03/15 01:59:59;;;;;;;13.20;7.90;;;;;;;;;;5072354;28;20034;-55
2024/03/15 02:02:27;;;;;;;13.27;8.00;;;;;;;;;;5071796;28;20085;-53
2024/03/15 02:04:56;;;;;;;13.70;8.85;;;;;;;;;;5090136;28;20034;-53
2024/03/15 02:07:22;;;;;;;13.25;7.93;;;;;;;;;;5090341;28;20032;-55
2024/03/15 02:09:49;;;;;;;13.50;8.40;;;;;;;;;;5090922;28;20085;-57
2024/03/15 02:12:15;;;;;;;13.45;8.23;;;;;;;;;;5090181;28;20024;-56
2024/03/15 02:14:41;;;;;;;13.45;8.20;;;;;;;;;;5089245;28;20486;-55
2024/03/15 02:17:07;;;;;;;13.50;8.40;;;;;;;;;;5090025;28;20051;-53
2024/03/15 02:19:33;;;;;;;13.45;8.18;;;;;;;;;;5089837;28;20503;-54
2024/03/15 02:21:59;;;;;;;13.32;8.15;;;;;;;;;;5089892;28;20030;-54
2024/03/15 02:24:25;;;;;;;13.40;8.20;;;;;;;;;;5089197;28;20031;-56
2024/03/15 02:26:51;;;;;;;13.38;8.15;;;;;;;;;;5089706;28;20024;-56
2024/03/15 02:29:17;;;;;;;13.50;8.40;;;;;;;;;;5089868;28;20452;-57
2024/03/15 02:31:46;;;;;;;13.48;8.30;;;;;;;;;;5089477;28;20012;-52
2024/03/15 02:34:13;;;;;;;14.52;9.50;;;;;;;;;;5089254;28;20374;-55
2024/03/15 02:36:40;;;;;;;13.57;8.50;;;;;;;;;;5071333;28;20371;-56
2024/03/15 02:39:07;;;;;;;13.38;8.27;;;;;;;;;;5071519;28;20024;-54
2024/03/15 02:41:36;;;;;;;13.40;8.20;;;;;;;;;;5089364;28;20047;-54
2024/03/15 02:44:02;;;;;;;13.40;8.10;;;;;;;;;;5089154;28;20028;-54
2024/03/15 02:46:28;;;;;;;13.23;8.02;;;;;;;;;;5089231;28;20132;-51
2024/03/15 02:48:54;;;;;;;13.50;8.40;;;;;;;;;;5089207;28;20472;-50
2024/03/15 02:51:22;;;;;;;13.43;8.20;;;;;;;;;;5089274;28;20024;-53
2024/03/15 02:53:48;;;;;;;14.27;8.97;;;;;;;;;;5070804;28;20405;-53
2024/03/15 02:56:15;;;;;;;13.35;7.90;;;;;;;;;;5089265;28;20273;-56
2024/03/15 02:58:41;;;;;;;13.23;7.85;;;;;;;;;;5071333;28;20062;-52
2024/03/15 03:01:07;;;;;;;13.38;7.95;;;;;;;;;;5089311;28;20020;-52
2024/03/15 03:03:33;;;;;;;13.45;8.20;;;;;;;;;;5088940;28;20079;-52
2024/03/15 03:05:59;;;;;;;13.55;8.52;;;;;;;;;;5089292;28;20060;-57
2024/03/15 03:08:25;;;;;;;13.30;8.13;;;;;;;;;;5089372;28;20119;-54
2024/03/15 03:10:50;;;;;;;13.43;8.07;;;;;;;;;;5089392;28;20027;-55
2024/03/15 03:13:16;;;;;;;13.93;9.27;;;;;;;;;;5070224;28;20070;-54
2024/03/15 03:15:42;;;;;;;13.40;8.20;;;;;;;;;;5088989;28;20112;-54
2024/03/15 03:18:08;;;;;;;13.48;8.30;;;;;;;;;;5089054;28;20109;-50
2024/03/15 03:20:34;;;;;;;13.32;8.13;;;;;;;;;;5088918;28;20615;-54
2024/03/15 03:23:00;;;;;;;13.50;8.48;;;;;;;;;;5088399;28;20099;-52
2024/03/15 03:25:27;;;;;;;13.55;8.50;;;;;;;;;;5088771;28;20481;-55
2024/03/15 03:27:53;;;;;;;13.57;8.70;;;;;;;;;;5088909;28;20060;-52
2024/03/15 03:30:19;;;;;;;13.57;8.43;;;;;;;;;;5088775;28;20012;-55
2024/03/15 03:32:45;;;;;;;13.50;8.40;;;;;;;;;;5088022;28;20028;-54
2024/03/15 03:35:13;;;;;;;13.60;8.70;;;;;;;;;;5070322;28;20173;-53
2024/03/15 03:37:40;;;;;;;13.63;8.80;;;;;;;;;;5088219;28;20055;-54
2024/03/15 03:40:09;;;;;;;13.57;8.70;;;;;;;;;;5088728;28;20031;-56
2024/03/15 03:42:36;;;;;;;13.68;8.88;;;;;;;;;;5069813;28;20084;-51
2024/03/15 03:45:15;;;;;;;13.57;8.70;;;;;;;;;;5088405;28;20048;-53
2024/03/15 03:47:49;;;;;;;13.70;9.02;;;;;;;;;;5070388;28;20067;-54
2024/03/15 03:50:15;;;;;;;13.65;8.80;;;;;;;;;;5070614;28;20562;-53
2024/03/15 03:52:41;;;;;;;14.13;9.10;;;;;;;;;;5087865;28;20115;-53
2024/03/15 03:55:07;;;;;;;13.48;8.48;;;;;;;;;;5070160;28;20028;-52
2024/03/15 03:57:37;;;;;;;13.55;8.65;;;;;;;;;;5088463;28;20631;-53
2024/03/15 04:00:04;;;;;;;13.65;8.80;;;;;;;;;;5088428;28;20020;-54
2024/03/15 04:02:31;;;;;;;13.68;9.00;;;;;;;;;;5087799;28;20019;-53
2024/03/15 04:04:57;;;;;;;13.68;8.90;;;;;;;;;;5088302;28;20035;-52
2024/03/15 04:07:29;;;;;;;13.68;8.82;;;;;;;;;;5088552;28;20031;-51
2024/03/15 04:09:56;;;;;;;13.65;8.80;;;;;;;;;;5088522;28;20055;-54
2024/03/15 04:12:22;;;;;;;14.57;9.65;;;;;;;;;;5069146;28;20028;-54
2024/03/15 04:14:49;;;;;;;13.55;8.65;;;;;;;;;;5088394;28;20028;-51
2024/03/15 04:17:16;;;;;;;13.70;9.02;;;;;;;;;;5070452;28;20020;-52
2024/03/15 04:19:43;;;;;;;13.60;8.73;;;;;;;;;;5088563;28;20028;-52
2024/03/15 04:22:11;;;;;;;13.65;8.95;;;;;;;;;;5088306;28;20035;-52
2024/03/15 04:24:37;;;;;;;13.65;8.82;;;;;;;;;;5087896;28;20028;-53
2024/03/15 04:27:03;;;;;;;13.65;8.85;;;;;;;;;;5088253;28;20471;-55
2024/03/15 04:29:32;;;;;;;13.57;8.70;;;;;;;;;;5088124;28;20443;-55
2024/03/15 04:31:59;;;;;;;13.90;9.00;;;;;;;;;;5069659;28;20028;-52
2024/03/15 04:34:25;;;;;;;13.57;8.75;;;;;;;;;;5087862;28;20100;-53
2024/03/15 04:36:51;;;;;;;13.45;8.50;;;;;;;;;;5088052;28;20111;-51
2024/03/15 04:39:17;;;;;;;13.60;8.82;;;;;;;;;;5087886;28;20024;-50
2024/03/15 04:41:43;;;;;;;13.65;8.80;;;;;;;;;;5087764;28;20024;-53
2024/03/15 04:44:09;;;;;;;13.57;8.70;;;;;;;;;;5069291;28;20035;-52
2024/03/15 04:46:35;;;;;;;13.70;9.00;;;;;;;;;;5087673;28;20058;-50
2024/03/15 04:49:01;;;;;;;13.60;8.75;;;;;;;;;;5091535;28;20027;-52
2024/03/15 04:51:27;;;;;;;13.60;8.70;;;;;;;;;;5073373;28;20427;-52
2024/03/15 04:53:54;;;;;;;13.60;8.70;;;;;;;;;;5091132;28;20043;-52
2024/03/15 04:56:20;;;;;;;13.70;9.00;;;;;;;;;;5073369;28;20115;-55
2024/03/15 04:58:46;;;;;;;13.48;8.60;;;;;;;;;;5073369;28;20090;-53
2024/03/15 05:01:12;;;;;;;13.57;8.75;;;;;;;;;;5072937;28;20116;-55
2024/03/15 05:03:38;;;;;;;14.10;9.57;;;;;;;;;;5090872;28;20024;-54
2024/03/15 05:06:04;;;;;;;13.90;9.73;;;;;;;;;;5091129;28;20051;-53
2024/03/15 05:08:31;;;;;;;13.75;9.13;;;;;;;;;;5091392;28;20095;-53
2024/03/15 05:10:57;;;;;;;16.30;10.75;;;;;;;;;;5091375;28;20354;-52
2024/03/15 05:13:24;;;;;;;13.70;9.00;;;;;;;;;;5090410;28;20020;-55
2024/03/15 05:15:51;;;;;;;13.88;9.55;;;;;;;;;;5073038;28;20225;-54
2024/03/15 05:18:17;;;;;;;13.88;9.40;;;;;;;;;;5091715;28;20020;-53
2024/03/15 05:20:43;;;;;;;13.82;9.43;;;;;;;;;;5073174;28;20362;-52
2024/03/15 05:23:09;;;;;;;14.60;10.85;;;;;;;;;;5091158;28;20020;-54
2024/03/15 05:25:36;;;;;;;14.20;10.30;;;;;;;;;;5091219;28;20436;-52
2024/03/15 05:28:02;;;;;;;13.88;9.35;;;;;;;;;;5091248;28;20035;-51
2024/03/15 05:30:28;;;;;;;13.90;9.70;;;;;;;;;;5091755;28;20465;-53
2024/03/15 05:32:54;;;;;;;13.88;9.50;;;;;;;;;;5090564;28;20034;-51
2024/03/15 05:35:21;;;;;;;13.85;9.48;;;;;;;;;;5091017;28;20060;-55
2024/03/15 05:37:47;;;;;;;13.82;9.40;;;;;;;;;;5091202;28;20078;-49
2024/03/15 05:40:14;;;;;;;13.90;9.60;;;;;;;;;;5090722;28;20107;-55
2024/03/15 05:42:41;;;;;;;13.90;9.43;;;;;;;;;;5090481;28;20110;-51
2024/03/15 05:45:07;;;;;;;13.88;9.43;;;;;;;;;;5090987;28;20101;-54
2024/03/15 05:47:33;;;;;;;13.85;9.43;;;;;;;;;;5091220;28;20025;-52
2024/03/15 05:50:00;;;;;;;13.88;9.45;;;;;;;;;;5091348;28;20016;-51
2024/03/15 05:52:26;;;;;;;13.82;9.30;;;;;;;;;;5090742;28;20058;-53
2024/03/15 05:54:52;;;;;;;13.75;9.15;;;;;;;;;;5091697;28;20330;-56
2024/03/15 05:57:18;;;;;;;13.85;9.40;;;;;;;;;;5091542;28;20480;-53
2024/03/15 05:59:45;;;;;;;13.85;9.30;;;;;;;;;;5089843;28;20074;-53
2024/03/15 06:02:11;;;;;;;13.80;9.20;;;;;;;;;;5090550;28;20058;-50
2024/03/15 06:04:37;;;;;;;13.65;8.60;;;;;;;;;;5089934;28;20058;-50
2024/03/15 06:07:03;;;;;;;14.38;9.30;;;;;;;;;;5090272;28;20072;-53
2024/03/15 06:09:29;;;;;;;13.70;9.10;;;;;;;;;;5090159;28;20031;-53
2024/03/15 06:11:56;;;;;;;14.63;9.77;;;;;;;;;;5089779;28;20525;-54
2024/03/15 06:14:22;;;;;;;13.95;9.30;;;;;;;;;;5089742;28;20529;-52
2024/03/15 06:16:48;;;;;;;13.65;8.80;;;;;;;;;;5089664;28;20147;-52
2024/03/15 06:19:14;;;;;;;13.70;9.00;;;;;;;;;;5089947;28;20119;-49
2024/03/15 06:21:42;;;;;;;13.60;8.80;;;;;;;;;;5090006;28;20497;-50
2024/03/15 06:24:10;;;;;;;13.75;9.13;;;;;;;;;;5090004;28;20363;-50
2024/03/15 06:26:40;;;;;;;14.98;12.50;;;;;;;;;;5059424;28;20037;-53
2024/03/15 06:29:08;;;;;;;14.90;12.45;;;;;;;;;;5081371;28;20494;-48
2024/03/15 06:31:34;;;;;;;15.10;12.65;;;;;;;;;;5069182;28;20017;-55
2024/03/15 06:34:07;;;;;;;15.10;12.63;;;;;;;;;;5076594;28;20432;-52
2024/03/15 06:36:41;;;;;;;14.40;10.95;;;;;;;;;;5089753;28;20486;-54
2024/03/15 06:39:22;;;;;;;14.35;10.90;;;;;;;;;;5089783;28;20588;-52
2024/03/15 06:41:51;;;;;;;14.40;11.05;;;;;;;;;;5087607;28;20111;-53
2024/03/15 06:49:43;;;;;;;14.18;10.38;;;;;;;;;;5069567;28;20039;-53
2024/03/15 06:54:55;;;;;;;14.07;10.05;;;;;;;;;;5069198;28;20425;-54
2024/03/15 06:57:22;;;;;;;14.52;11.25;;;;;;;;;;5051237;28;20020;-50
2024/03/15 06:59:48;;;;;;;14.60;11.52;;;;;;;;;;5078219;28;20496;-53
2024/03/15 07:02:14;;;;;;;14.30;10.77;;;;;;;;;;5088629;28;20078;-50
2024/03/15 07:04:40;;;;;;;14.25;10.50;;;;;;;;;;5088604;28;20032;-53
2024/03/15 07:07:07;;;;;;;14.30;10.73;;;;;;;;;;5089088;28;20547;-52
2024/03/15 07:09:33;;;;;;;15.35;11.80;;;;;;;;;;5088773;28;20024;-55
2024/03/15 07:11:59;;;;;;;14.60;10.70;;;;;;;;;;5087708;28;20042;-52
2024/03/15 07:14:25;;;;;;;14.23;10.52;;;;;;;;;;5088409;28;20024;-51
2024/03/15 07:16:51;;;;;;;14.30;10.70;;;;;;;;;;5070408;28;20024;-54
2024/03/15 07:19:18;;;;;;;14.18;10.25;;;;;;;;;;5070404;28;20442;-51
2024/03/15 07:21:44;;;;;;;14.77;10.50;;;;;;;;;;5070127;28;20036;-56
2024/03/15 07:24:10;;;;;;;14.05;10.15;;;;;;;;;;5069737;28;20398;-54
2024/03/15 07:26:37;;;;;;;14.00;9.93;;;;;;;;;;5088182;28;20626;-50
2024/03/15 07:29:04;;;;;;;14.15;10.32;;;;;;;;;;5088650;28;20043;-54
2024/03/15 07:31:30;;;;;;;14.10;10.18;;;;;;;;;;5088337;28;20020;-48
2024/03/15 07:33:59;;;;;;;13.95;9.75;;;;;;;;;;5088060;28;20016;-52
2024/03/15 07:36:27;;;;;;;14.02;9.93;;;;;;;;;;5088654;28;20032;-53
2024/03/15 07:38:53;;;;;;;13.85;9.48;;;;;;;;;;5088643;28;20023;-53
2024/03/15 07:41:21;;;;;;;13.77;9.10;;;;;;;;;;5088204;28;20447;-50
2024/03/15 07:43:47;;;;;;;;;;;;;;;;;;5088244;28;20023;-48
2024/03/15 07:46:13;;;;;;;13.90;9.48;;;;;;;;;;5087116;28;19919;-53
2024/03/15 07:48:41;;;;;;;14.90;10.07;;;;;;;;;;5088077;28;20103;-54
2024/03/15 07:51:07;;;;;;;13.80;9.25;;;;;;;;;;5087907;28;20301;-51
2024/03/15 07:53:33;;;;;;;13.70;9.00;;;;;;;;;;5087308;28;20054;-52
2024/03/15 07:56:03;;;;;;;14.10;9.20;;;;;;;;;;5087661;28;20052;-50
2024/03/15 07:58:29;;;;;;;13.55;8.52;;;;;;;;;;5069458;28;20090;-51
2024/03/15 08:00:56;;;;;;;13.57;8.70;;;;;;;;;;5087871;28;20164;-51
2024/03/15 08:03:23;;;;;;;13.55;8.55;;;;;;;;;;5087791;28;20039;-56
2024/03/15 08:05:49;;;;;;;13.50;8.43;;;;;;;;;;5088122;28;20506;-52
2024/03/15 08:08:16;;;;;;;13.70;8.70;;;;;;;;;;5088027;28;20113;-53
2024/03/15 08:10:42;;;;;;;13.75;9.25;;;;;;;;;;5088171;28;20096;-50
2024/03/15 08:13:11;;;;;;;13.52;8.40;;;;;;;;;;5087409;28;20020;-50
2024/03/15 08:15:37;;;;;;;13.70;9.00;;;;;;;;;;5087869;28;20092;-54
2024/03/15 08:18:05;;;;;;;13.60;8.65;;;;;;;;;;5088021;28;20152;-49
2024/03/15 08:20:32;;;;;;;14.77;8.73;;;;;;;;;;5088120;28;20092;-50
2024/03/15 08:22:58;;;;;;;13.63;8.90;;;;;;;;;;5089326;28;20068;-55
2024/03/15 08:25:24;;;;;;;13.70;9.00;;;;;;;;;;5091595;28;20043;-54
2024/03/15 08:27:50;;;;;;;13.60;8.48;;;;;;;;;;5091597;28;20016;-52
2024/03/15 08:30:17;;;;;;;14.80;9.85;;;;;;;;;;5091605;28;20063;-55
2024/03/15 08:32:43;;;;;;;13.35;8.13;;;;;;;;;;5090621;28;20024;-53
2024/03/15 08:35:13;;;;;;;13.70;8.85;;;;;;;;;;5091485;28;20508;-53
2024/03/15 08:37:42;;;;;;;13.43;8.32;;;;;;;;;;5091926;28;20028;-49
2024/03/15 08:40:09;;;;;;;;;;;;;;;;;;5074179;28;20054;-53
2024/03/15 08:42:35;;;;;;;14.10;9.05;;;;;;;;;;5091261;28;20453;-52
2024/03/15 08:45:01;;;;;;;13.63;8.90;;;;;;;;;;5091360;28;20048;-54
2024/03/15 08:47:29;;;;;;;14.00;8.82;;;;;;;;;;5091570;28;20028;-51
2024/03/15 08:50:00;;;;;;;13.63;8.20;;;;;;;;;;5073149;28;20021;-53
2024/03/15 08:52:26;;;;;;;13.27;8.05;;;;;;;;;;5090930;28;20020;-50
2024/03/15 08:54:52;;;;;;;13.35;8.10;;;;;;;;;;5091227;28;20028;-54
2024/03/15 08:57:18;;;;;;;13.68;9.02;;;;;;;;;;5091173;28;20012;-51
2024/03/15 08:59:44;;;;;;;13.45;8.48;;;;;;;;;;5091442;28;20035;-51
2024/03/15 09:02:12;;;;;;;13.38;8.02;;;;;;;;;;5090153;28;20027;-52
2024/03/15 09:04:38;;;;;;;13.48;8.20;;;;;;;;;;5090860;28;20097;-54
2024/03/15 09:07:05;;;;;;;13.57;8.70;;;;;;;;;;5091538;28;20177;-57
2024/03/15 09:09:39;;;;;;;13.65;8.82;;;;;;;;;;5091224;28;20016;-52
2024/03/15 09:12:06;;;;;;;13.55;8.57;;;;;;;;;;5090797;28;20024;-54
2024/03/15 09:14:35;;;;;;;14.00;9.00;;;;;;;;;;5090825;28;20020;-52
2024/03/15 09:17:08;;;;;;;14.00;10.38;;;;;;;;;;5091375;28;20024;-53
2024/03/15 09:19:34;;;;;;;14.32;10.00;;;;;;;;;;5091275;28;20028;-51
2024/03/15 09:22:00;;;;;;;14.30;10.25;;;;;;;;;;5090875;28;20020;-53
2024/03/15 09:24:26;;;;;;;14.40;10.13;;;;;;;;;;5090610;28;20107;-52
2024/03/15 09:26:52;;;;;;;14.65;9.23;;;;;;;;;;5090689;28;20020;-47
2024/03/15 09:29:19;;;;;;;13.80;9.00;;;;;;;;;;5091015;28;20028;-55
2024/03/15 09:31:51;;;;;;;14.10;9.30;;;;;;;;;;5090584;28;20389;-47
2024/03/15 09:34:17;;;;;;;13.52;8.50;;;;;;;;;;5081033;28;20121;-53
2024/03/15 09:36:43;;;;;;;13.68;8.85;;;;;;;;;;5086641;28;20096;-53
2024/03/15 09:39:13;;;;;;;15.18;10.45;;;;;;;;;;5087286;28;20024;-54
2024/03/15 09:41:39;;;;;;;14.35;8.80;;;;;;;;;;5082046;28;20077;-51
2024/03/15 09:44:13;;;;;;;13.65;8.85;;;;;;;;;;5089787;28;20036;-57
2024/03/15 09:46:39;;;;;;;39.25;10.07;;;;;;;;;;5087511;28;20032;-53
2024/03/15 09:49:05;;;;;;;13.40;8.40;;;;;;;;;;5084265;28;20446;-55
2024/03/15 09:51:32;;;;;;;17.17;9.40;;;;;;;;;;5071875;28;20020;-53
2024/03/15 09:54:02;;;;;;;13.95;9.30;;;;;;;;;;5089871;28;20070;-51
2024/03/15 09:56:29;;;;;;;13.93;9.48;;;;;;;;;;5090209;28;20024;-53
2024/03/15 09:58:57;;;;;;;13.85;9.13;;;;;;;;;;5090118;28;20031;-48
2024/03/15 10:01:23;;;;;;;14.30;9.07;;;;;;;;;;5089876;28;20024;-50
2024/03/15 10:03:49;;;;;;;14.65;10.43;;;;;;;;;;5089709;28;20031;-49
2024/03/15 10:06:16;;;;;;;13.57;8.68;;;;;;;;;;5089932;28;20428;-54
2024/03/15 10:08:43;;;;;;;13.90;9.38;;;;;;;;;;5089954;28;20077;-52
2024/03/15 10:11:09;;;;;;;14.45;10.65;;;;;;;;;;5089039;28;20028;-52
2024/03/15 10:13:35;;;;;;;13.60;8.80;;;;;;;;;;5088073;28;20081;-50
2024/03/15 10:16:04;;;;;;;15.23;9.52;;;;;;;;;;5089672;28;20108;-50
2024/03/15 10:18:34;;;;;;;13.90;9.00;;;;;;;;;;5089852;28;20393;-53
2024/03/15 10:21:00;;;;;;;13.82;8.80;;;;;;;;;;5089733;28;20020;-55
2024/03/15 10:23:26;;;;;;;14.40;9.75;;;;;;;;;;5089010;28;20115;-51
2024/03/15 10:25:53;;;;;;;14.20;9.18;;;;;;;;;;5089273;28;20669;-53
2024/03/15 10:28:22;;;;;;;14.52;9.88;;;;;;;;;;5089618;28;20024;-48
2024/03/15 10:30:49;;;;;;;13.88;9.50;;;;;;;;;;5089728;28;20338;-55
2024/03/15 10:33:16;;;;;;;13.52;8.45;;;;;;;;;;5089178;28;20130;-54
2024/03/15 10:35:42;;;;;;;14.30;10.07;;;;;;;;;;5089400;28;20027;-54
2024/03/15 10:38:12;;;;;;;14.73;9.50;;;;;;;;;;5089436;28;20095;-54
2024/03/15 10:40:38;;;;;;;14.00;8.98;;;;;;;;;;5088379;28;20027;-53
2024/03/15 10:43:08;;;;;;;14.20;10.10;;;;;;;;;;5087344;28;20036;-57
2024/03/15 10:45:40;;;;;;;15.38;9.95;;;;;;;;;;5070642;28;20062;-51
2024/03/15 10:48:09;;;;;;;14.65;9.40;;;;;;;;;;5089377;28;20028;-52
2024/03/15 10:50:36;;;;;;;14.65;9.80;;;;;;;;;;5089121;28;20110;-53
2024/03/15 10:53:05;;;;;;;13.70;9.00;;;;;;;;;;5088459;28;20028;-52
2024/03/15 10:55:31;;;;;;;14.40;9.15;;;;;;;;;;5088616;28;20028;-53
2024/03/15 10:58:04;;;;;;;13.90;9.55;;;;;;;;;;5089136;28;20142;-53
2024/03/15 11:00:30;;;;;;;13.88;9.43;;;;;;;;;;5089003;28;20399;-50
2024/03/15 11:03:17;;;;;;;14.57;9.95;;;;;;;;;;5087966;28;20119;-49
2024/03/15 11:05:44;;;;;;;15.20;10.80;;;;;;;;;;5088413;28;20036;-52
2024/03/15 11:08:14;;;;;;;14.00;9.60;;;;;;;;;;5088783;28;20039;-49
2024/03/15 11:10:41;;;;;;;14.65;10.70;;;;;;;;;;5088876;28;20032;-48
2024/03/15 11:13:12;;;;;;;14.10;10.00;;;;;;;;;;5087995;28;20489;-50
2024/03/15 11:15:39;;;;;;;14.00;9.75;;;;;;;;;;5088767;28;20031;-53
2024/03/15 11:18:09;;;;;;;15.45;10.48;;;;;;;;;;5088642;28;20076;-49
2024/03/15 11:20:52;;;;;;;13.98;9.55;;;;;;;;;;5088512;28;20046;-49
2024/03/15 11:23:18;;;;;;;16.52;10.85;;;;;;;;;;5088005;28;20081;-51
2024/03/15 11:26:07;;;;;;;13.85;9.52;;;;;;;;;;5088608;28;20440;-54
2024/03/15 11:28:37;;;;;;;16.15;10.40;;;;;;;;;;5057070;28;20089;-51
2024/03/15 11:31:03;;;;;;;29.20;10.95;;;;;;;;;;5068552;28;20032;-48
2024/03/15 11:33:33;;;;;;;14.00;9.68;;;;;;;;;;5067811;28;20025;-52
2024/03/15 11:35:59;;;;;;;14.98;10.43;;;;;;;;;;5067510;28;20067;-51
2024/03/15 11:38:28;;;;;;;14.00;9.70;;;;;;;;;;5068647;28;20664;-54
2024/03/15 11:40:56;;;;;;;15.25;10.90;;;;;;;;;;5068539;28;20032;-51
2024/03/15 11:43:22;;;;;;;14.30;9.93;;;;;;;;;;5067681;28;20020;-53
2024/03/15 11:45:48;;;;;;;18.20;12.38;;;;;;;;;;5068179;28;20033;-49
2024/03/15 11:48:18;;;;;;;15.50;10.68;;;;;;;;;;5068507;28;20371;-53
2024/03/15 11:50:45;;;;;;;13.75;9.10;;;;;;;;;;5067835;28;20021;-52
2024/03/15 11:53:15;;;;;;;14.77;9.85;;;;;;;;;;5067385;28;20025;-52
2024/03/15 11:55:46;;;;;;;14.40;10.00;;;;;;;;;;5068275;28;20403;-50
2024/03/15 11:58:13;;;;;;;13.90;9.48;;;;;;;;;;5074574;28;20080;-52
2024/03/15 12:00:39;;;;;;;14.63;10.87;;;;;;;;;;5087533;28;20055;-56
2024/03/15 12:03:08;;;;;;;14.40;10.43;;;;;;;;;;5085189;28;20086;-54
2024/03/15 12:05:37;;;;;;;13.95;9.57;;;;;;;;;;5089560;28;20028;-52
2024/03/15 12:08:27;;;;;;;14.23;9.40;;;;;;;;;;5089375;28;20032;-53
2024/03/15 12:10:54;;;;;;;13.70;9.10;;;;;;;;;;5088265;28;20059;-54
2024/03/15 12:13:24;;;;;;;13.98;9.60;;;;;;;;;;5085475;28;20169;-50
2024/03/15 12:15:51;;;;;;;13.70;8.90;;;;;;;;;;5079054;28;20017;-56
2024/03/15 12:18:18;;;;;;;13.90;9.30;;;;;;;;;;5081221;28;20129;-54
2024/03/15 12:20:44;;;;;;;14.82;9.77;;;;;;;;;;5089378;28;20381;-54
2024/03/15 12:23:21;;;;;;;14.75;10.65;;;;;;;;;;5090775;28;20055;-54
2024/03/15 12:25:48;;;;;;;14.88;11.32;;;;;;;;;;5092241;28;20036;-50
2024/03/15 12:28:17;;;;;;;14.32;10.52;;;;;;;;;;5092114;28;20086;-49
2024/03/15 12:30:44;;;;;;;15.00;10.60;;;;;;;;;;5091983;28;20095;-54
2024/03/15 12:33:10;;;;;;;13.80;9.30;;;;;;;;;;5091482;28;20016;-53
2024/03/15 12:35:36;;;;;;;14.35;10.48;;;;;;;;;;5089387;28;20039;-53
2024/03/15 12:38:02;;;;;;;13.85;9.40;;;;;;;;;;5085414;28;20128;-53
2024/03/15 12:40:29;;;;;;;13.90;9.25;;;;;;;;;;5091807;28;20051;-54
2024/03/15 12:42:55;;;;;;;13.32;7.82;;;;;;;;;;5091081;28;20101;-48
2024/03/15 12:45:21;;;;;;;13.43;8.20;;;;;;;;;;5102784;22;20040;-51
2024/03/15 12:47:47;;;;;;;13.60;8.70;;;;;;;;;;5052996;28;20063;-49
2024/03/15 12:50:17;;;;;;;13.85;9.05;;;;;;;;;;5052998;28;20402;-50
2024/03/15 12:52:43;;;;;;;13.57;8.70;;;;;;;;;;5051055;28;20025;-50
2024/03/15 12:55:16;;;;;;;14.75;9.68;;;;;;;;;;5053022;28;20044;-50
2024/03/15 12:57:44;;;;;;;13.52;8.50;;;;;;;;;;5053170;28;20094;-48
2024/03/15 13:00:13;;;;;;;14.00;9.30;;;;;;;;;;5049900;28;20033;-55
2024/03/15 13:02:39;;;;;;;13.63;8.80;;;;;;;;;;5043950;28;20048;-47
2024/03/15 13:05:09;;;;;;;13.75;9.05;;;;;;;;;;5052585;28;20041;-53
2024/03/15 13:07:36;;;;;;;14.18;9.35;;;;;;;;;;5051275;28;20032;-50
2024/03/15 13:10:02;;;;;;;13.70;9.00;;;;;;;;;;5052274;28;20028;-50
2024/03/15 13:12:28;;;;;;;13.65;8.90;;;;;;;;;;5051718;28;20025;-50
2024/03/15 13:14:54;;;;;;;13.63;8.77;;;;;;;;;;5052490;28;20025;-50
2024/03/15 13:17:21;;;;;;;13.63;8.80;;;;;;;;;;5051710;28;20036;-55
2024/03/15 13:19:48;;;;;;;14.40;9.98;;;;;;;;;;5052123;28;20320;-54
2024/03/15 13:22:14;;;;;;;13.57;8.75;;;;;;;;;;5051999;28;20163;-55
2024/03/15 13:24:40;;;;;;;13.65;8.88;;;;;;;;;;5051354;28;20044;-54
2024/03/15 13:27:11;;;;;;;13.75;9.02;;;;;;;;;;5051565;28;20036;-53
2024/03/15 13:29:37;;;;;;;13.65;8.70;;;;;;;;;;5051988;28;20029;-53
2024/03/15 13:32:04;;;;;;;13.65;8.90;;;;;;;;;;5030786;28;20017;-49
2024/03/15 13:34:30;;;;;;;13.90;9.40;;;;;;;;;;5048210;28;20045;-50
2024/03/15 13:36:56;;;;;;;13.57;8.70;;;;;;;;;;5051920;28;20027;-56
2024/03/15 13:39:27;;;;;;;13.77;9.15;;;;;;;;;;5051680;28;20021;-60
2024/03/15 13:41:57;;;;;;;13.90;9.27;;;;;;;;;;5051449;28;20025;-56
2024/03/15 13:44:25;;;;;;;13.55;8.57;;;;;;;;;;5050120;28;20029;-59
2024/03/15 13:46:51;;;;;;;14.73;10.57;;;;;;;;;;5051566;28;20454;-58
2024/03/15 13:49:17;;;;;;;15.23;9.63;;;;;;;;;;5051542;28;20036;-57
2024/03/15 13:51:43;;;;;;;13.60;8.60;;;;;;;;;;5051237;28;20020;-59
2024/03/15 13:54:10;;;;;;;13.52;8.40;;;;;;;;;;5051261;28;20067;-58
2024/03/15 13:56:36;;;;;;;13.70;8.80;;;;;;;;;;5051436;28;20560;-54
2024/03/15 13:59:07;;;;;;;13.50;8.38;;;;;;;;;;5050922;28;20086;-56
2024/03/15 14:01:33;;;;;;;13.70;8.82;;;;;;;;;;5045614;28;20120;-58
2024/03/15 14:03:59;;;;;;;13.70;9.00;;;;;;;;;;5045915;28;20156;-57
2024/03/15 14:06:35;;;;;;;14.57;10.48;;;;;;;;;;5031767;28;20033;-55
2024/03/15 14:09:02;;;;;;;14.50;9.30;;;;;;;;;;5031767;28;20025;-56
2024/03/15 14:11:28;;;;;;;14.15;9.63;;;;;;;;;;5013698;28;20499;-56
2024/03/15 14:13:57;;;;;;;13.85;9.50;;;;;;;;;;5031086;28;20023;-60
2024/03/15 14:16:23;;;;;;;13.93;9.52;;;;;;;;;;5033541;28;20057;-61
2024/03/15 14:18:49;;;;;;;14.15;9.80;;;;;;;;;;5032167;28;20274;-59
2024/03/15 14:21:15;;;;;;;16.73;14.93;;;;;;;;;;5030434;28;20403;-58
2024/03/15 14:23:44;;;;;;;42.88;39.28;;;;;;;;;;5013027;28;20029;-59
2024/03/15 14:26:10;;;;;;;43.10;39.70;;;;;;;;;;5031065;28;20017;-60
2024/03/15 14:28:40;;;;;;;41.90;38.80;;;;;;;;;;5031101;28;20033;-60
2024/03/15 14:31:06;;;;;;;38.40;35.50;;;;;;;;;;5030743;28;20022;-61
2024/03/15 14:33:33;;;;;;;42.42;39.33;;;;;;;;;;5047103;28;20028;-60
2024/03/15 14:35:59;;;;;;;43.25;40.05;;;;;;;;;;5029754;28;20390;-56